Terminal Aerodrome Forecast
Issued by NWS

Home | Current Version | Previous Version | Text Only | Print | Product List | Glossary On
Versions: 1 2 3 4 5 6 7 8 9 10 11 12 13 14 15 16 17 18 19 20 21 22 23
000
FTUS45 KGJT 241132
TAFEGE
TAF
KEGE 241132Z 2412/2512 VRB03KT P6SM FEW110 OVC200
     FM241900 24014G23KT P6SM FEW080 BKN200
     FM242100 24019G30KT P6SM BKN080 BKN200
     FM250000 26011KT P6SM FEW060 SCT250
     FM250800 00000KT P6SM FEW110 SCT250
      AMD LTD TO CLD VIS AND WIND TIL 241400=

USA.gov is the U.S. government's official web portal to all federal, state and local government web resources and services.